Terminal Aerodrome Forecast
Issued by NWS

Home | Current Version | Previous Version | Text Only | Print | Product List | Glossary On
Versions: 1 2 3 4 5 6 7 8 9 10 11 12 13 14 15 16 17 18 19 20 21 22 23 24 25 26 27 28 29 30 31 32 33 34 35 36 37 38
665
FTUS45 KBOU 220303 AAA
TAFAPA
TAF AMD
KAPA 220303Z 2203/2224 30007KT P6SM VCSH SCT050 BKN080 OVC110
     FM220600 27008KT P6SM SCT080 BKN130
     FM220900 23007KT P6SM FEW090 SCT140 BKN200
     FM221400 19006KT P6SM FEW140 SCT220
     FM221700 16008KT P6SM FEW220
     FM222300 13012KT P6SM FEW080 SCT140 BKN220=

USA.gov is the U.S. government's official web portal to all federal, state and local government web resources and services.